Time;durP1;ratioP1;P1;durP2;ratioP2;P2;SDS_P1;SDS_P2;PMS_P1;PMS_P2;Temp;Humidity;BMP_temperature;BMP_pressure;BME280_temperature;BME280_humidity;BME280_pressure;Samples;Min_cycle;Max_cycle;Signal;HPM_P1;HPM_P2
2023/01/04 00:01:47;;;;;;;;;;;8.80;99.90;;;;;;4981239;28;20392;-69
2023/01/04 00:04:13;;;;;;;;;;;8.80;99.90;;;;;;4980998;28;19933;-69
2023/01/04 00:06:40;;;;;;;;;;;8.90;99.90;;;;;;4981682;28;20020;-68
2023/01/04 00:09:07;;;;;;;;;;;8.90;99.90;;;;;;4979376;28;19936;-70
2023/01/04 00:11:35;;;;;;;;;;;8.90;99.90;;;;;;4984820;28;19948;-69
2023/01/04 00:14:01;;;;;;;;;;;8.90;99.90;;;;;;4983909;28;20073;-70
2023/01/04 00:16:28;;;;;;;;;;;9.00;99.90;;;;;;4978568;28;20008;-69
2023/01/04 00:18:55;;;;;;;;;;;9.00;99.90;;;;;;4982296;28;20020;-69
2023/01/04 00:21:23;;;;;;;;;;;9.10;99.90;;;;;;4995174;28;21122;-69
2023/01/04 00:23:50;;;;;;;;;;;9.10;99.90;;;;;;4979703;28;19932;-69
2023/01/04 00:26:18;;;;;;;;;;;9.10;99.90;;;;;;4987690;28;19925;-69
2023/01/04 00:28:47;;;;;;;;;;;9.10;99.90;;;;;;4983162;28;20381;-68
2023/01/04 00:31:14;;;;;;;;;;;9.20;99.90;;;;;;4988374;28;19925;-70
2023/01/04 00:33:41;;;;;;;;;;;9.20;99.90;;;;;;4986027;28;19933;-70
2023/01/04 00:36:09;;;;;;;;;;;9.20;99.90;;;;;;4986968;28;19941;-70
2023/01/04 00:38:36;;;;;;;;;;;9.20;99.90;;;;;;4986101;28;19934;-70
2023/01/04 00:41:03;;;;;;;;;;;9.30;99.90;;;;;;4984777;28;19926;-70
2023/01/04 00:43:30;;;;;;;;;;;9.30;99.90;;;;;;4974163;28;19932;-70
2023/01/04 00:45:58;;;;;;;;;;;9.30;99.90;;;;;;4989299;28;19936;-70
2023/01/04 00:48:24;;;;;;;;;;;9.40;99.90;;;;;;4989296;28;19961;-70
2023/01/04 00:50:53;;;;;;;;;;;9.30;99.90;;;;;;4985490;28;19980;-71
2023/01/04 00:53:20;;;;;;;;;;;9.30;99.90;;;;;;4989039;28;20368;-70
2023/01/04 00:55:47;;;;;;;;;;;9.30;99.90;;;;;;4988380;28;20011;-70
2023/01/04 00:58:13;;;;;;;;;;;9.30;99.90;;;;;;4976933;28;19926;-70
2023/01/04 01:00:40;;;;;;;;;;;9.40;99.90;;;;;;4976673;28;19926;-70
2023/01/04 01:03:08;;;;;;;;;;;9.30;99.90;;;;;;4987734;28;19933;-70
2023/01/04 01:05:35;;;;;;;;;;;9.30;99.90;;;;;;4984389;28;19999;-70
2023/01/04 01:08:23;;;;;;;;;;;9.40;99.90;;;;;;4981245;28;20294;-70
2023/01/04 01:10:50;;;;;;;;;;;9.40;99.90;;;;;;4986391;28;20322;-71
2023/01/04 01:13:16;;;;;;;;;;;9.40;99.90;;;;;;4982842;28;19937;-71
2023/01/04 01:15:43;;;;;;;;;;;9.40;99.90;;;;;;4986560;28;20005;-71
2023/01/04 01:18:11;;;;;;;;;;;9.50;99.90;;;;;;4986190;28;20020;-71
2023/01/04 01:20:41;;;;;;;;;;;9.40;99.90;;;;;;4986946;28;19926;-70
2023/01/04 01:23:07;;;;;;;;;;;9.50;99.90;;;;;;4976286;28;19940;-70
2023/01/04 01:25:34;;;;;;;;;;;9.50;99.90;;;;;;4988154;28;19933;-70
2023/01/04 01:28:01;;;;;;;;;;;9.50;99.90;;;;;;4987219;28;20020;-70
2023/01/04 01:30:27;;;;;;;;;;;9.60;99.90;;;;;;4987330;28;19929;-70
2023/01/04 01:32:54;;;;;;;;;;;9.60;99.90;;;;;;4987239;28;19948;-70
2023/01/04 01:35:22;;;;;;;;;;;9.70;99.90;;;;;;4987068;28;19925;-70
2023/01/04 01:37:48;;;;;;;;;;;9.70;99.90;;;;;;4984390;28;20198;-69
2023/01/04 01:40:15;;;;;;;;;;;9.80;99.90;;;;;;4979122;28;19926;-70
2023/01/04 01:42:42;;;;;;;;;;;9.70;99.90;;;;;;4988783;28;19934;-71
2023/01/04 01:45:21;;;;;;;;;;;9.70;99.90;;;;;;4987431;28;20064;-71
2023/01/04 01:47:49;;;;;;;;;;;9.70;99.90;;;;;;5002754;28;20310;-71
2023/01/04 01:50:22;;;;;;;;;;;9.70;99.90;;;;;;4983629;28;19926;-71
2023/01/04 01:52:50;;;;;;;;;;;9.70;99.90;;;;;;4976794;28;19933;-71
2023/01/04 01:55:17;;;;;;;;;;;9.70;99.90;;;;;;4982666;28;19926;-70
2023/01/04 01:57:44;;;;;;;;;;;9.70;99.90;;;;;;4984115;28;19932;-71
2023/01/04 02:00:12;;;;;;;;;;;9.70;99.90;;;;;;4977989;28;20064;-70
2023/01/04 02:02:40;;;;;;;;;;;9.80;99.90;;;;;;4987601;28;20416;-71
2023/01/04 02:05:08;;;;;;;;;;;9.90;99.90;;;;;;4986650;28;19932;-71
2023/01/04 02:07:35;;;;;;;;;;;9.90;99.90;;;;;;4988545;28;19926;-71
2023/01/04 02:10:03;;;;;;;;;;;9.90;99.90;;;;;;4986393;28;20013;-70
2023/01/04 02:12:30;;;;;;;;;;;9.90;99.90;;;;;;4972636;28;19940;-70
2023/01/04 02:14:57;;;;;;;;;;;9.90;99.90;;;;;;4981621;28;19932;-70
2023/01/04 02:17:29;;;;;;;;;;;9.90;99.90;;;;;;4985783;28;20009;-70
2023/01/04 02:20:01;;;;;;;;;;;10.00;99.90;;;;;;4977886;28;19926;-69
2023/01/04 02:22:41;;;;;;;;;;;10.00;99.90;;;;;;4988130;28;20286;-69
2023/01/04 02:25:19;;;;;;;;;;;10.00;99.90;;;;;;4977224;28;20381;-71
2023/01/04 02:27:49;;;;;;;;;;;10.10;99.90;;;;;;4976004;28;19934;-71
2023/01/04 02:30:39;;;;;;;;;;;10.10;99.90;;;;;;4977214;28;19925;-71
2023/01/04 02:33:12;;;;;;;;;;;10.10;99.90;;;;;;4996256;28;20393;-71
2023/01/04 02:35:43;;;;;;;;;;;10.10;99.90;;;;;;4985631;28;19992;-71
2023/01/04 02:38:14;;;;;;;;;;;10.10;99.90;;;;;;4986762;28;20025;-71
2023/01/04 02:40:47;;;;;;;;;;;10.10;99.90;;;;;;4978431;28;19930;-71
2023/01/04 02:46:06;;;;;;;;;;;10.10;99.90;;;;;;4985512;28;19932;-71
2023/01/04 02:51:27;;;;;;;;;;;10.10;99.90;;;;;;4980327;28;20039;-70
2023/01/04 02:53:53;;;;;;;;;;;10.10;99.90;;;;;;4986430;28;19925;-70
2023/01/04 02:56:34;;;;;;;;;;;10.10;99.90;;;;;;4981461;28;19972;-71
2023/01/04 02:59:05;;;;;;;;;;;10.10;99.90;;;;;;4975389;28;20078;-71
2023/01/04 03:07:21;;;;;;;;;;;10.20;99.90;;;;;;4982689;28;20293;-70
2023/01/04 03:09:50;;;;;;;;;;;10.20;99.90;;;;;;4978625;28;20021;-70
2023/01/04 03:12:34;;;;;;;;;;;10.20;99.90;;;;;;4982552;28;19926;-70
2023/01/04 03:15:04;;;;;;;;;;;10.20;99.90;;;;;;4984875;28;19940;-70
2023/01/04 03:17:33;;;;;;;;;;;10.20;99.90;;;;;;4983567;28;19926;-70
2023/01/04 03:20:01;;;;;;;;;;;10.20;99.90;;;;;;4985007;28;20381;-70
2023/01/04 03:36:26;;;;;;;;;;;10.20;99.90;;;;;;4985676;28;20028;-70
2023/01/04 03:50:03;;;;;;;;;;;10.40;99.90;;;;;;4979541;28;19967;-70
2023/01/04 03:52:33;;;;;;;;;;;10.40;99.90;;;;;;4974483;28;19927;-71
2023/01/04 03:55:00;;;;;;;;;;;10.40;99.90;;;;;;4979433;28;20022;-69
2023/01/04 03:57:27;;;;;;;;;;;10.40;99.90;;;;;;4986136;28;19932;-68
2023/01/04 03:59:57;;;;;;;;;;;10.40;99.90;;;;;;4982750;28;20270;-69
2023/01/04 04:02:24;;;;;;;;;;;10.50;99.90;;;;;;4982829;28;19926;-69
2023/01/04 04:10:21;;;;;;;;;;;10.50;99.90;;;;;;4979884;28;20332;-70
2023/01/04 04:12:48;;;;;;;;;;;10.50;99.90;;;;;;4983027;28;20373;-70
2023/01/04 04:15:15;;;;;;;;;;;10.60;99.90;;;;;;4989061;28;19926;-70
2023/01/04 04:17:42;;;;;;;;;;;10.60;99.90;;;;;;4989926;28;20028;-70
2023/01/04 04:20:11;;;;;;;;;;;10.70;99.90;;;;;;4988010;28;19932;-70
2023/01/04 04:22:39;;;;;;;;;;;10.70;99.90;;;;;;4990418;28;20350;-70
2023/01/04 04:25:06;;;;;;;;;;;10.70;99.90;;;;;;4986566;28;20364;-70
2023/01/04 04:27:33;;;;;;;;;;;10.70;99.90;;;;;;4979899;28;20020;-70
2023/01/04 04:30:01;;;;;;;;;;;10.70;99.90;;;;;;4977166;28;19934;-71
2023/01/04 04:32:28;;;;;;;;;;;10.80;99.90;;;;;;4984887;28;19930;-71
2023/01/04 04:34:54;;;;;;;;;;;10.80;99.90;;;;;;4989917;28;19953;-70
2023/01/04 04:37:21;;;;;;;;;;;10.80;99.90;;;;;;4988282;28;19978;-71
2023/01/04 04:39:49;;;;;;;;;;;10.70;99.90;;;;;;4984835;28;19979;-70
2023/01/04 04:42:15;;;;;;;;;;;10.80;99.90;;;;;;4991035;28;19965;-71
2023/01/04 04:44:42;;;;;;;;;;;10.70;99.90;;;;;;4989859;28;20360;-71
2023/01/04 04:47:08;;;;;;;;;;;10.80;99.90;;;;;;4988692;28;20013;-70
2023/01/04 04:49:35;;;;;;;;;;;10.80;99.90;;;;;;4981758;28;19979;-71
2023/01/04 04:52:02;;;;;;;;;;;10.80;99.90;;;;;;4990233;28;20354;-71
2023/01/04 04:54:29;;;;;;;;;;;10.90;99.90;;;;;;4988699;28;19968;-70
2023/01/04 04:56:57;;;;;;;;;;;11.00;99.90;;;;;;4988409;28;19933;-71
2023/01/04 04:59:23;;;;;;;;;;;11.00;99.90;;;;;;4981532;28;20021;-71
2023/01/04 05:01:50;;;;;;;;;;;11.00;99.90;;;;;;4990228;28;19986;-72
2023/01/04 05:04:18;;;;;;;;;;;11.00;99.90;;;;;;4988015;28;20321;-72
2023/01/04 05:06:45;;;;;;;;;;;11.00;99.90;;;;;;4989045;28;19926;-71
2023/01/04 05:09:12;;;;;;;;;;;11.00;99.90;;;;;;4986006;28;19981;-71
2023/01/04 05:14:24;;;;;;;;;;;11.10;99.90;;;;;;4988115;28;19932;-70
2023/01/04 05:16:51;;;;;;;;;;;11.10;99.90;;;;;;4987432;28;19977;-71
2023/01/04 05:19:18;;;;;;;;;;;11.10;99.90;;;;;;4981257;28;19926;-72
2023/01/04 05:21:44;;;;;;;;;;;11.10;99.90;;;;;;4986741;28;19930;-73
2023/01/04 05:24:12;;;;;;;;;;;11.10;99.90;;;;;;4990044;28;20020;-72
2023/01/04 05:26:38;;;;;;;;;;;11.10;99.90;;;;;;4979087;28;19933;-72
2023/01/04 05:29:05;;;;;;;;;;;11.10;99.90;;;;;;4988536;28;19932;-73
2023/01/04 05:31:36;;;;;;;;;;;11.10;99.90;;;;;;4980439;28;20439;-72
2023/01/04 05:34:03;;;;;;;;;;;11.00;99.90;;;;;;4984804;28;20289;-72
2023/01/04 05:36:30;;;;;;;;;;;10.90;99.90;;;;;;4982499;28;20002;-72
2023/01/04 05:38:56;;;;;;;;;;;10.80;99.90;;;;;;4986538;28;20392;-73
2023/01/04 05:44:07;;;;;;;;;;;10.70;99.90;;;;;;4978264;28;20423;-72
2023/01/04 05:46:33;;;;;;;;;;;10.70;99.90;;;;;;4983847;28;19932;-72
2023/01/04 05:49:02;;;;;;;;;;;10.80;99.90;;;;;;4981411;28;20378;-73
2023/01/04 05:51:28;;;;;;;;;;;10.90;99.90;;;;;;4985060;28;19937;-72
2023/01/04 05:53:55;;;;;;;;;;;10.90;99.90;;;;;;4984207;28;22813;-72
2023/01/04 05:56:22;;;;;;;;;;;10.80;99.90;;;;;;4985431;28;20305;-72
2023/01/04 05:58:51;;;;;;;;;;;10.80;99.90;;;;;;4978924;28;20406;-72
2023/01/04 06:01:20;;;;;;;;;;;10.90;99.90;;;;;;4986206;28;20004;-73
2023/01/04 06:03:47;;;;;;;;;;;10.90;99.90;;;;;;4990363;28;20322;-72
2023/01/04 06:06:15;;;;;;;;;;;11.00;99.90;;;;;;4985253;28;19965;-72
2023/01/04 06:08:41;;;;;;;;;;;11.10;99.90;;;;;;4990375;28;19926;-72
2023/01/04 06:11:08;;;;;;;;;;;11.10;99.90;;;;;;4983978;28;20021;-73
2023/01/04 06:13:35;;;;;;;;;;;11.20;99.90;;;;;;4982136;28;20013;-73
2023/01/04 06:16:01;;;;;;;;;;;11.20;99.90;;;;;;4983110;28;19937;-73
2023/01/04 06:18:28;;;;;;;;;;;11.30;99.90;;;;;;4986593;28;19925;-72
2023/01/04 06:20:55;;;;;;;;;;;11.30;99.90;;;;;;4988384;28;20016;-72
2023/01/04 06:23:23;;;;;;;;;;;11.30;99.90;;;;;;4985219;28;19972;-73
2023/01/04 06:25:50;;;;;;;;;;;11.40;99.90;;;;;;4986252;28;19926;-73
2023/01/04 06:28:16;;;;;;;;;;;11.30;99.90;;;;;;4987789;28;19988;-72
2023/01/04 06:30:43;;;;;;;;;;;11.30;99.90;;;;;;4986641;28;19926;-73
2023/01/04 06:33:10;;;;;;;;;;;11.30;99.90;;;;;;4982535;28;20017;-72
2023/01/04 06:35:36;;;;;;;;;;;11.20;99.90;;;;;;4986891;28;19926;-73
2023/01/04 06:38:03;;;;;;;;;;;11.20;99.90;;;;;;4988782;28;20020;-73
2023/01/04 06:40:31;;;;;;;;;;;11.20;99.90;;;;;;4987078;28;19950;-72
2023/01/04 06:42:58;;;;;;;;;;;11.30;99.90;;;;;;4980988;28;20361;-73
2023/01/04 06:45:25;;;;;;;;;;;11.30;99.90;;;;;;4984536;28;19944;-73
2023/01/04 06:47:51;;;;;;;;;;;11.30;99.90;;;;;;4987917;28;19972;-74
2023/01/04 06:50:18;;;;;;;;;;;11.30;99.90;;;;;;4986107;28;19933;-72
2023/01/04 06:52:45;;;;;;;;;;;11.40;99.90;;;;;;4988100;28;19925;-73
2023/01/04 06:55:12;;;;;;;;;;;11.40;99.90;;;;;;5003297;28;20333;-73
2023/01/04 06:57:40;;;;;;;;;;;11.40;99.90;;;;;;4981739;28;20349;-73
2023/01/04 07:00:07;;;;;;;;;;;11.50;99.90;;;;;;4987431;28;19926;-73
2023/01/04 07:02:34;;;;;;;;;;;11.50;99.90;;;;;;4982523;28;20088;-73
2023/01/04 07:05:01;;;;;;;;;;;11.50;99.90;;;;;;4982607;28;19984;-72
2023/01/04 07:07:28;;;;;;;;;;;11.50;99.90;;;;;;4975126;28;20389;-73
2023/01/04 07:09:54;;;;;;;;;;;11.50;99.90;;;;;;4977971;28;19988;-73
2023/01/04 07:12:21;;;;;;;;;;;11.50;99.90;;;;;;4985991;28;19936;-74
2023/01/04 07:14:49;;;;;;;;;;;11.60;99.90;;;;;;4987448;28;19994;-72
2023/01/04 07:17:16;;;;;;;;;;;11.60;99.90;;;;;;4974821;28;19926;-72
2023/01/04 07:19:43;;;;;;;;;;;11.60;99.90;;;;;;4981118;28;20281;-72
2023/01/04 07:22:09;;;;;;;;;;;11.60;99.90;;;;;;4986833;28;19930;-72
2023/01/04 07:24:37;;;;;;;;;;;11.60;99.90;;;;;;4984189;28;19932;-71
2023/01/04 07:27:04;;;;;;;;;;;11.60;99.90;;;;;;4985821;28;20280;-72
2023/01/04 07:29:30;;;;;;;;;;;11.60;99.90;;;;;;4983619;28;19957;-72
2023/01/04 07:31:58;;;;;;;;;;;11.60;99.90;;;;;;4982329;28;22675;-73
2023/01/04 07:34:25;;;;;;;;;;;11.70;99.90;;;;;;4982527;28;20456;-73
2023/01/04 07:36:52;;;;;;;;;;;11.70;99.90;;;;;;4990493;28;20451;-72
2023/01/04 07:39:19;;;;;;;;;;;11.70;99.90;;;;;;4984344;28;19961;-71
2023/01/04 07:41:46;;;;;;;;;;;11.80;99.90;;;;;;4986184;28;19926;-72
2023/01/04 07:44:13;;;;;;;;;;;11.80;99.90;;;;;;4988330;28;19926;-73
2023/01/04 07:46:41;;;;;;;;;;;11.80;99.90;;;;;;4987231;28;20040;-72
2023/01/04 07:49:11;;;;;;;;;;;11.80;99.90;;;;;;4988628;28;20405;-73
2023/01/04 07:51:38;;;;;;;;;;;11.80;99.90;;;;;;4984925;28;19932;-73
2023/01/04 07:54:04;;;;;;;;;;;11.80;99.90;;;;;;4985648;28;20004;-74
2023/01/04 07:56:31;;;;;;;;;;;11.90;99.90;;;;;;4973732;28;19960;-72
2023/01/04 07:58:58;;;;;;;;;;;11.80;99.90;;;;;;4981347;28;20595;-72
2023/01/04 08:01:26;;;;;;;;;;;11.80;99.90;;;;;;4982694;28;19949;-72
2023/01/04 08:03:53;;;;;;;;;;;11.80;99.90;;;;;;4979393;28;20016;-73
2023/01/04 08:06:21;;;;;;;;;;;11.80;99.90;;;;;;4983085;28;20353;-73
2023/01/04 08:08:48;;;;;;;;;;;11.70;99.90;;;;;;4984176;28;19979;-72
2023/01/04 08:11:24;;;;;;;;;;;11.80;99.90;;;;;;4984245;28;20355;-72
2023/01/04 08:13:50;;;;;;;;;;;11.70;99.90;;;;;;4974845;28;20658;-72
2023/01/04 08:16:22;;;;;;;;;;;11.70;99.90;;;;;;4980709;28;19932;-71
2023/01/04 08:18:52;;;;;;;;;;;11.70;99.90;;;;;;4981041;28;19965;-73
2023/01/04 08:21:19;;;;;;;;;;;11.80;99.90;;;;;;4979186;28;20488;-72
2023/01/04 08:23:47;;;;;;;;;;;11.70;99.90;;;;;;4978467;28;20368;-72
2023/01/04 08:26:15;;;;;;;;;;;11.70;99.90;;;;;;4979569;28;20009;-72
2023/01/04 08:28:41;;;;;;;;;;;11.70;99.90;;;;;;4980200;28;19936;-72
2023/01/04 08:31:10;;;;;;;;;;;11.70;99.90;;;;;;4985736;28;19934;-73
2023/01/04 08:33:38;;;;;;;;;;;11.70;99.90;;;;;;4985756;28;19932;-72
2023/01/04 08:36:08;;;;;;;;;;;11.70;99.90;;;;;;4980323;28;19926;-72
2023/01/04 08:38:35;;;;;;;;;;;11.70;99.90;;;;;;4982200;28;19930;-73
2023/01/04 08:41:03;;;;;;;;;;;11.70;99.90;;;;;;4981921;28;19982;-72
2023/01/04 08:43:29;;;;;;;;;;;11.70;99.90;;;;;;4976300;28;19932;-72
2023/01/04 08:45:56;;;;;;;;;;;11.70;99.90;;;;;;4977377;28;19979;-71
2023/01/04 08:48:23;;;;;;;;;;;11.70;99.90;;;;;;4975451;28;19930;-72
2023/01/04 08:50:50;;;;;;;;;;;11.70;99.90;;;;;;4971552;28;20503;-72
2023/01/04 08:53:16;;;;;;;;;;;11.80;99.90;;;;;;4972525;28;20400;-72
2023/01/04 08:55:48;;;;;;;;;;;11.80;99.90;;;;;;4977467;28;20124;-74
2023/01/04 08:58:16;;;;;;;;;;;11.80;99.90;;;;;;4983385;28;19944;-73
2023/01/04 09:00:43;;;;;;;;;;;11.80;99.90;;;;;;4983236;28;19926;-73
2023/01/04 09:03:09;;;;;;;;;;;11.90;99.90;;;;;;4977396;28;19987;-73
2023/01/04 09:05:36;;;;;;;;;;;11.90;99.90;;;;;;4979880;28;19962;-74
2023/01/04 09:08:03;;;;;;;;;;;11.90;99.90;;;;;;4975770;28;19926;-73
2023/01/04 09:10:30;;;;;;;;;;;12.00;99.90;;;;;;4976122;28;19929;-73
2023/01/04 09:12:56;;;;;;;;;;;12.10;99.90;;;;;;4979588;28;20300;-74
2023/01/04 09:15:24;;;;;;;;;;;12.10;99.90;;;;;;4986787;28;20550;-73
2023/01/04 09:17:51;;;;;;;;;;;12.10;99.90;;;;;;4982916;28;20497;-73
2023/01/04 09:20:18;;;;;;;;;;;12.10;99.90;;;;;;4980460;28;19934;-73
2023/01/04 09:22:44;;;;;;;;;;;12.10;99.90;;;;;;4981651;28;19926;-72
2023/01/04 09:25:11;;;;;;;;;;;12.20;99.90;;;;;;4968283;28;19948;-73
2023/01/04 09:27:38;;;;;;;;;;;12.20;99.90;;;;;;4974373;28;20041;-73
2023/01/04 09:30:06;;;;;;;;;;;12.20;99.90;;;;;;4977321;28;19941;-74
2023/01/04 09:32:34;;;;;;;;;;;12.20;99.90;;;;;;4979894;28;20055;-73
2023/01/04 09:35:01;;;;;;;;;;;12.20;99.90;;;;;;4981841;28;19926;-73
2023/01/04 09:37:27;;;;;;;;;;;12.20;99.90;;;;;;4975316;28;20021;-73
2023/01/04 09:39:54;;;;;;;;;;;12.20;99.90;;;;;;4972722;28;20023;-74
2023/01/04 09:42:23;;;;;;;;;;;12.20;99.90;;;;;;4976277;28;19932;-73
2023/01/04 09:44:51;;;;;;;;;;;12.20;99.90;;;;;;4971901;28;19932;-73
2023/01/04 09:47:19;;;;;;;;;;;12.30;99.90;;;;;;4978564;28;20406;-75
2023/01/04 09:49:50;;;;;;;;;;;12.30;99.90;;;;;;4973004;28;20322;-74
2023/01/04 09:52:19;;;;;;;;;;;12.30;99.90;;;;;;4977716;28;19929;-73
2023/01/04 09:54:47;;;;;;;;;;;12.20;99.90;;;;;;4982291;28;19926;-75
2023/01/04 09:57:19;;;;;;;;;;;12.20;99.90;;;;;;4980267;28;19934;-75
2023/01/04 09:59:47;;;;;;;;;;;12.10;99.90;;;;;;4973868;28;19932;-73
2023/01/04 10:02:16;;;;;;;;;;;12.10;99.90;;;;;;4974999;28;19933;-73
2023/01/04 10:04:45;;;;;;;;;;;12.10;99.90;;;;;;4978897;28;19936;-74
2023/01/04 10:07:21;;;;;;;;;;;12.10;99.90;;;;;;4982447;28;19929;-72
2023/01/04 10:09:47;;;;;;;;;;;12.00;99.90;;;;;;4981770;28;21923;-83
2023/01/04 10:12:22;;;;;;;;;;;12.00;99.90;;;;;;4980769;28;19926;-73
2023/01/04 10:14:55;;;;;;;;;;;11.90;99.90;;;;;;4978748;28;20013;-72
2023/01/04 10:17:36;;;;;;;;;;;11.90;99.90;;;;;;4978004;28;19926;-74
2023/01/04 10:20:15;;;;;;;;;;;11.90;99.90;;;;;;4983451;28;19929;-73
2023/01/04 10:22:46;;;;;;;;;;;11.80;99.90;;;;;;4982744;28;20024;-73
2023/01/04 10:25:20;;;;;;;;;;;11.80;99.90;;;;;;4978311;28;19992;-74
2023/01/04 10:27:52;;;;;;;;;;;11.80;99.90;;;;;;4980845;28;20657;-75
2023/01/04 10:30:26;;;;;;;;;;;11.80;99.90;;;;;;4982184;28;19977;-75
2023/01/04 10:32:56;;;;;;;;;;;11.80;99.90;;;;;;4976270;28;20381;-74
2023/01/04 10:35:23;;;;;;;;;;;11.80;99.90;;;;;;4976425;28;19934;-75
2023/01/04 10:37:53;;;;;;;;;;;11.80;99.90;;;;;;4975953;28;19937;-74
2023/01/04 10:40:19;;;;;;;;;;;11.70;99.90;;;;;;4977971;28;19925;-75
2023/01/04 10:42:53;;;;;;;;;;;11.70;99.90;;;;;;4976961;28;19926;-74
2023/01/04 10:45:22;;;;;;;;;;;11.70;99.90;;;;;;4979024;28;19938;-73
2023/01/04 10:47:57;;;;;;;;;;;11.70;99.90;;;;;;4980178;28;20044;-75
2023/01/04 10:50:26;;;;;;;;;;;11.70;99.90;;;;;;4979789;28;19934;-74
2023/01/04 10:52:57;;;;;;;;;;;11.70;99.90;;;;;;4982731;28;19932;-75
2023/01/04 10:55:27;;;;;;;;;;;11.80;99.90;;;;;;4978966;28;19983;-75
2023/01/04 10:57:56;;;;;;;;;;;11.80;99.90;;;;;;4973388;28;19930;-74
2023/01/04 11:00:26;;;;;;;;;;;11.70;99.90;;;;;;4978214;28;20037;-75
2023/01/04 11:02:55;;;;;;;;;;;11.70;99.90;;;;;;4979311;28;19933;-75
2023/01/04 11:05:24;;;;;;;;;;;11.70;99.90;;;;;;4977197;28;19979;-75
2023/01/04 11:07:53;;;;;;;;;;;11.70;99.90;;;;;;4979417;28;19932;-74
2023/01/04 11:10:23;;;;;;;;;;;11.70;99.90;;;;;;4980008;28;19933;-74
2023/01/04 11:12:50;;;;;;;;;;;11.70;99.90;;;;;;4977046;28;20084;-73
2023/01/04 11:15:17;;;;;;;;;;;11.70;99.90;;;;;;4980205;28;20328;-74
2023/01/04 11:17:44;;;;;;;;;;;11.70;99.90;;;;;;4974117;28;20336;-74
2023/01/04 11:20:13;;;;;;;;;;;11.70;99.90;;;;;;4987230;28;21329;-73
2023/01/04 11:22:42;;;;;;;;;;;11.80;99.90;;;;;;4979636;28;19929;-73
2023/01/04 11:25:12;;;;;;;;;;;11.80;99.90;;;;;;4977295;28;19926;-73
2023/01/04 11:27:44;;;;;;;;;;;11.80;99.90;;;;;;4978264;28;20296;-73
2023/01/04 11:30:13;;;;;;;;;;;11.80;99.90;;;;;;4975362;28;20400;-74
2023/01/04 11:32:42;;;;;;;;;;;11.80;99.90;;;;;;4978618;28;20308;-71
2023/01/04 11:35:09;;;;;;;;;;;11.80;99.90;;;;;;4974557;28;20355;-73
2023/01/04 11:37:36;;;;;;;;;;;11.80;99.90;;;;;;4979078;28;20385;-74
2023/01/04 11:40:21;;;;;;;;;;;11.80;99.90;;;;;;4973953;28;19940;-73
2023/01/04 11:42:50;;;;;;;;;;;11.90;99.90;;;;;;4978812;28;19969;-73
2023/01/04 11:45:18;;;;;;;;;;;11.90;99.90;;;;;;4976443;28;20311;-74
2023/01/04 11:47:48;;;;;;;;;;;11.80;99.90;;;;;;4980091;28;20632;-73
2023/01/04 11:50:33;;;;;;;;;;;11.90;99.90;;;;;;4978785;28;19925;-75
2023/01/04 11:52:59;;;;;;;;;;;11.90;99.90;;;;;;4982505;28;19937;-73
2023/01/04 11:55:27;;;;;;;;;;;11.90;99.90;;;;;;4981553;28;20407;-74
2023/01/04 11:58:06;;;;;;;;;;;11.90;99.90;;;;;;4982031;28;20012;-74
2023/01/04 12:00:33;;;;;;;;;;;11.90;99.90;;;;;;4977104;28;20010;-74
2023/01/04 12:03:11;;;;;;;;;;;11.90;99.90;;;;;;4977874;28;20028;-74
2023/01/04 12:05:37;;;;;;;;;;;11.90;99.90;;;;;;4979513;28;19926;-73
2023/01/04 12:08:04;;;;;;;;;;;12.00;99.90;;;;;;4979804;28;20013;-74
2023/01/04 12:10:31;;;;;;;;;;;12.00;99.90;;;;;;4974196;28;20290;-74
2023/01/04 12:13:00;;;;;;;;;;;12.00;99.90;;;;;;4982254;28;19926;-74
2023/01/04 12:15:32;;;;;;;;;;;12.10;99.90;;;;;;4977674;28;19926;-74
2023/01/04 12:18:01;;;;;;;;;;;12.10;99.90;;;;;;4979457;28;20294;-73
2023/01/04 12:20:29;;;;;;;;;;;12.10;99.90;;;;;;4977735;28;19936;-74
2023/01/04 12:22:56;;;;;;;;;;;12.10;99.90;;;;;;4979606;28;20020;-73
2023/01/04 12:25:28;;;;;;;;;;;12.00;99.90;;;;;;4975256;28;19940;-73
2023/01/04 12:27:55;;;;;;;;;;;12.00;99.90;;;;;;4976572;28;19934;-74
2023/01/04 12:30:40;;;;;;;;;;;12.00;99.90;;;;;;4975632;28;19930;-74
2023/01/04 12:33:25;;;;;;;;;;;12.00;99.90;;;;;;4980684;28;19930;-75
2023/01/04 12:35:58;;;;;;;;;;;12.00;99.90;;;;;;4979550;28;20407;-74
2023/01/04 12:38:39;;;;;;;;;;;12.00;99.90;;;;;;4977706;28;19926;-74
2023/01/04 12:41:06;;;;;;;;;;;12.10;99.90;;;;;;4975464;28;20024;-76
2023/01/04 12:43:37;;;;;;;;;;;12.10;99.90;;;;;;4977537;28;19980;-75
2023/01/04 12:52:12;;;;;;;;;;;12.10;99.90;;;;;;5054710;27;19925;-74
2023/01/04 12:54:46;;;;;;;;;;;12.10;99.90;;;;;;5058215;28;20519;-74
2023/01/04 12:57:24;;;;;;;;;;;12.10;99.90;;;;;;5063470;28;20019;-75
2023/01/04 12:59:54;;;;;;;;;;;12.10;99.90;;;;;;5063674;28;19925;-73
2023/01/04 13:02:22;;;;;;;;;;;12.10;99.90;;;;;;5056956;28;20383;-74
2023/01/04 13:04:49;;;;;;;;;;;12.10;99.90;;;;;;5057997;28;20027;-73
2023/01/04 13:07:21;;;;;;;;;;;12.10;99.90;;;;;;5047329;28;19938;-74
2023/01/04 13:09:53;;;;;;;;;;;12.20;99.90;;;;;;5050461;28;19932;-73
2023/01/04 13:12:35;;;;;;;;;;;12.20;99.90;;;;;;5052031;28;19924;-74
2023/01/04 13:15:04;;;;;;;;;;;12.30;99.90;;;;;;5055430;28;19925;-75
2023/01/04 13:17:36;;;;;;;;;;;12.30;99.90;;;;;;5053275;28;19929;-74
2023/01/04 13:20:12;;;;;;;;;;;12.40;99.90;;;;;;5053289;28;19959;-72
2023/01/04 13:22:49;;;;;;;;;;;12.40;99.90;;;;;;5057361;28;19968;-74
2023/01/04 13:25:18;;;;;;;;;;;12.50;99.90;;;;;;5047677;28;20107;-74
2023/01/04 13:27:57;;;;;;;;;;;12.50;99.90;;;;;;5052122;28;19936;-74
2023/01/04 13:30:31;;;;;;;;;;;12.50;99.90;;;;;;5052126;28;19933;-74
2023/01/04 13:32:58;;;;;;;;;;;12.50;99.90;;;;;;5061451;28;19932;-74
2023/01/04 13:35:25;;;;;;;;;;;12.50;99.90;;;;;;5054640;28;20396;-73
2023/01/04 13:37:52;;;;;;;;;;;12.50;99.90;;;;;;5057222;28;19928;-72
2023/01/04 13:40:24;;;;;;;;;;;12.60;99.90;;;;;;5051707;28;20063;-74
2023/01/04 13:42:57;;;;;;;;;;;12.60;99.90;;;;;;5051079;28;20011;-75
2023/01/04 13:45:32;;;;;;;;;;;12.60;99.90;;;;;;5057480;28;19933;-74
2023/01/04 13:48:01;;;;;;;;;;;12.50;99.90;;;;;;5057046;28;19928;-74
2023/01/04 13:50:33;;;;;;;;;;;12.50;99.90;;;;;;5053495;28;19954;-74
2023/01/04 13:53:00;;;;;;;;;;;12.50;99.90;;;;;;5052717;28;19925;-73
2023/01/04 13:55:29;;;;;;;;;;;12.40;99.90;;;;;;5052149;28;19968;-73
2023/01/04 13:57:56;;;;;;;;;;;12.40;99.90;;;;;;5051364;28;19929;-73
2023/01/04 14:00:24;;;;;;;;;;;12.40;99.90;;;;;;5056227;28;19933;-75
2023/01/04 14:03:04;;;;;;;;;;;12.40;99.90;;;;;;5045958;28;20052;-76
2023/01/04 14:05:31;;;;;;;;;;;12.40;99.90;;;;;;5050027;28;21211;-75
2023/01/04 14:07:58;;;;;;;;;;;12.40;99.90;;;;;;5045210;28;20380;-75
2023/01/04 14:10:24;;;;;;;;;;;12.40;99.90;;;;;;5042764;28;19924;-74
2023/01/04 14:12:52;;;;;;;;;;;12.40;99.90;;;;;;5034576;28;19932;-75
2023/01/04 14:15:21;;;;;;;;;;;12.40;99.90;;;;;;5046831;28;20376;-75
2023/01/04 14:17:49;;;;;;;;;;;12.30;99.90;;;;;;5041564;28;19939;-76
2023/01/04 14:20:33;;;;;;;;;;;12.30;99.90;;;;;;5039865;28;19931;-75
2023/01/04 14:23:00;;;;;;;;;;;12.30;99.90;;;;;;5049337;28;19932;-76
2023/01/04 14:25:47;;;;;;;;;;;12.30;99.90;;;;;;5035747;28;19955;-75
2023/01/04 14:28:20;;;;;;;;;;;12.30;99.90;;;;;;5032664;28;19938;-74
2023/01/04 14:30:47;;;;;;;;;;;12.30;99.90;;;;;;5041453;28;20466;-75
2023/01/04 14:33:16;;;;;;;;;;;12.30;99.90;;;;;;5045627;28;19929;-74
2023/01/04 14:35:42;;;;;;;;;;;12.30;99.90;;;;;;5043151;28;20021;-71
2023/01/04 14:38:11;;;;;;;;;;;12.40;99.90;;;;;;5041779;28;20304;-74
2023/01/04 14:40:38;;;;;;;;;;;12.30;99.90;;;;;;5044824;28;19952;-74
2023/01/04 14:43:20;;;;;;;;;;;12.30;99.90;;;;;;5040355;28;19931;-74
2023/01/04 14:45:48;;;;;;;;;;;12.40;99.90;;;;;;5048350;28;20024;-74
2023/01/04 14:48:14;;;;;;;;;;;12.40;99.90;;;;;;5037546;28;19931;-74
2023/01/04 14:50:41;;;;;;;;;;;12.40;99.90;;;;;;5047681;28;19925;-75
2023/01/04 14:53:09;;;;;;;;;;;12.40;99.90;;;;;;5036529;28;19943;-75
2023/01/04 14:55:35;;;;;;;;;;;12.40;99.90;;;;;;5041663;28;19925;-74
2023/01/04 14:58:02;;;;;;;;;;;12.40;99.90;;;;;;5037267;28;20497;-74
2023/01/04 15:00:29;;;;;;;;;;;12.50;99.90;;;;;;5041919;28;20075;-74
2023/01/04 15:02:57;;;;;;;;;;;12.50;99.90;;;;;;5038922;28;20032;-74
2023/01/04 15:05:23;;;;;;;;;;;12.50;99.90;;;;;;5042127;28;19940;-74
2023/01/04 15:07:50;;;;;;;;;;;12.50;99.90;;;;;;5038646;28;19931;-73
2023/01/04 15:10:21;;;;;;;;;;;12.60;99.90;;;;;;5043300;28;20316;-75
2023/01/04 15:12:48;;;;;;;;;;;12.60;99.90;;;;;;5036534;28;19929;-74
2023/01/04 15:15:14;;;;;;;;;;;12.60;99.90;;;;;;5043428;28;19968;-72
2023/01/04 15:17:41;;;;;;;;;;;12.60;99.90;;;;;;5046119;28;20138;-75
2023/01/04 15:20:10;;;;;;;;;;;12.60;99.90;;;;;;5045436;28;19924;-75
2023/01/04 15:22:38;;;;;;;;;;;12.60;99.90;;;;;;5044491;28;19925;-75